sensor_id;sensor_type;location;lat;lon;timestamp;P1;durP1;ratioP1;P2;durP2;ratioP2
2462;SDS011;1243;54.298;10.172;2023-05-07T00:00:36;15.40;;;11.50;;
2462;SDS011;1243;54.298;10.172;2023-05-07T00:03:02;16.63;;;10.60;;
2462;SDS011;1243;54.298;10.172;2023-05-07T00:05:28;15.00;;;10.60;;
2462;SDS011;1243;54.298;10.172;2023-05-07T00:07:54;13.97;;;10.37;;
2462;SDS011;1243;54.298;10.172;2023-05-07T00:10:20;16.17;;;9.73;;
2462;SDS011;1243;54.298;10.172;2023-05-07T00:12:46;15.03;;;10.50;;
2462;SDS011;1243;54.298;10.172;2023-05-07T00:15:11;15.30;;;10.80;;
2462;SDS011;1243;54.298;10.172;2023-05-07T00:17:37;17.33;;;11.10;;
2462;SDS011;1243;54.298;10.172;2023-05-07T00:20:03;13.83;;;11.07;;
2462;SDS011;1243;54.298;10.172;2023-05-07T00:22:33;18.87;;;11.83;;
2462;SDS011;1243;54.298;10.172;2023-05-07T00:25:08;13.70;;;10.40;;
2462;SDS011;1243;54.298;10.172;2023-05-07T00:27:35;15.93;;;11.73;;
2462;SDS011;1243;54.298;10.172;2023-05-07T00:30:01;17.43;;;10.70;;
2462;SDS011;1243;54.298;10.172;2023-05-07T00:32:26;15.63;;;10.37;;
2462;SDS011;1243;54.298;10.172;2023-05-07T00:34:52;14.53;;;11.53;;
2462;SDS011;1243;54.298;10.172;2023-05-07T00:37:18;14.53;;;10.73;;
2462;SDS011;1243;54.298;10.172;2023-05-07T00:39:43;21.23;;;11.03;;
2462;SDS011;1243;54.298;10.172;2023-05-07T00:42:09;17.80;;;12.83;;
2462;SDS011;1243;54.298;10.172;2023-05-07T00:44:35;15.87;;;10.70;;
2462;SDS011;1243;54.298;10.172;2023-05-07T00:47:01;15.30;;;10.97;;
2462;SDS011;1243;54.298;10.172;2023-05-07T00:49:37;13.43;;;10.60;;
2462;SDS011;1243;54.298;10.172;2023-05-07T00:52:05;22.00;;;11.23;;
2462;SDS011;1243;54.298;10.172;2023-05-07T00:54:34;21.33;;;10.33;;
2462;SDS011;1243;54.298;10.172;2023-05-07T00:57:02;15.60;;;10.50;;
2462;SDS011;1243;54.298;10.172;2023-05-07T00:59:31;12.60;;;10.20;;
2462;SDS011;1243;54.298;10.172;2023-05-07T01:01:57;13.87;;;11.23;;
2462;SDS011;1243;54.298;10.172;2023-05-07T01:04:24;13.90;;;10.37;;
2462;SDS011;1243;54.298;10.172;2023-05-07T01:06:50;13.20;;;10.37;;
2462;SDS011;1243;54.298;10.172;2023-05-07T01:09:16;17.57;;;12.67;;
2462;SDS011;1243;54.298;10.172;2023-05-07T01:11:47;14.53;;;10.87;;
2462;SDS011;1243;54.298;10.172;2023-05-07T01:14:14;16.10;;;10.67;;
2462;SDS011;1243;54.298;10.172;2023-05-07T01:16:40;15.37;;;10.90;;
2462;SDS011;1243;54.298;10.172;2023-05-07T01:19:07;15.33;;;12.47;;
2462;SDS011;1243;54.298;10.172;2023-05-07T01:21:35;16.33;;;11.40;;
2462;SDS011;1243;54.298;10.172;2023-05-07T01:24:02;16.30;;;10.67;;
2462;SDS011;1243;54.298;10.172;2023-05-07T01:26:30;13.67;;;10.73;;
2462;SDS011;1243;54.298;10.172;2023-05-07T01:28:56;12.70;;;11.33;;
2462;SDS011;1243;54.298;10.172;2023-05-07T01:31:21;14.50;;;12.00;;
2462;SDS011;1243;54.298;10.172;2023-05-07T01:33:49;13.70;;;10.90;;
2462;SDS011;1243;54.298;10.172;2023-05-07T01:36:18;25.10;;;12.00;;
2462;SDS011;1243;54.298;10.172;2023-05-07T01:38:45;14.70;;;12.60;;
2462;SDS011;1243;54.298;10.172;2023-05-07T01:41:11;17.40;;;11.87;;
2462;SDS011;1243;54.298;10.172;2023-05-07T01:43:38;13.20;;;12.00;;
2462;SDS011;1243;54.298;10.172;2023-05-07T01:46:06;28.30;;;13.10;;
2462;SDS011;1243;54.298;10.172;2023-05-07T01:48:34;14.53;;;11.63;;
2462;SDS011;1243;54.298;10.172;2023-05-07T01:51:00;15.87;;;11.77;;
2462;SDS011;1243;54.298;10.172;2023-05-07T01:53:27;12.53;;;11.20;;
2462;SDS011;1243;54.298;10.172;2023-05-07T01:55:53;17.67;;;13.00;;
2462;SDS011;1243;54.298;10.172;2023-05-07T01:58:19;14.37;;;12.20;;
2462;SDS011;1243;54.298;10.172;2023-05-07T02:00:45;14.27;;;11.73;;
2462;SDS011;1243;54.298;10.172;2023-05-07T02:03:11;17.10;;;12.10;;
2462;SDS011;1243;54.298;10.172;2023-05-07T02:05:36;14.10;;;11.60;;
2462;SDS011;1243;54.298;10.172;2023-05-07T02:08:02;20.53;;;10.60;;
2462;SDS011;1243;54.298;10.172;2023-05-07T02:10:28;13.20;;;11.80;;
2462;SDS011;1243;54.298;10.172;2023-05-07T02:12:54;16.40;;;11.40;;
2462;SDS011;1243;54.298;10.172;2023-05-07T02:15:20;13.50;;;11.37;;
2462;SDS011;1243;54.298;10.172;2023-05-07T02:18:02;15.27;;;12.77;;
2462;SDS011;1243;54.298;10.172;2023-05-07T02:20:29;17.27;;;12.07;;
2462;SDS011;1243;54.298;10.172;2023-05-07T02:22:55;12.83;;;10.63;;
2462;SDS011;1243;54.298;10.172;2023-05-07T02:25:21;11.80;;;10.60;;
2462;SDS011;1243;54.298;10.172;2023-05-07T02:27:46;11.50;;;10.20;;
2462;SDS011;1243;54.298;10.172;2023-05-07T02:30:13;13.30;;;11.80;;
2462;SDS011;1243;54.298;10.172;2023-05-07T02:32:39;12.97;;;10.80;;
2462;SDS011;1243;54.298;10.172;2023-05-07T02:35:05;14.00;;;11.60;;
2462;SDS011;1243;54.298;10.172;2023-05-07T02:37:31;12.50;;;10.90;;
2462;SDS011;1243;54.298;10.172;2023-05-07T02:39:56;12.57;;;11.27;;
2462;SDS011;1243;54.298;10.172;2023-05-07T02:42:22;15.23;;;11.73;;
2462;SDS011;1243;54.298;10.172;2023-05-07T02:44:48;14.10;;;10.83;;
2462;SDS011;1243;54.298;10.172;2023-05-07T02:47:14;13.90;;;10.50;;
2462;SDS011;1243;54.298;10.172;2023-05-07T02:49:40;14.13;;;11.47;;
2462;SDS011;1243;54.298;10.172;2023-05-07T02:52:06;16.23;;;11.10;;
2462;SDS011;1243;54.298;10.172;2023-05-07T02:54:32;12.20;;;9.47;;
2462;SDS011;1243;54.298;10.172;2023-05-07T02:56:58;13.37;;;11.13;;
2462;SDS011;1243;54.298;10.172;2023-05-07T02:59:25;12.10;;;10.30;;
2462;SDS011;1243;54.298;10.172;2023-05-07T03:01:51;10.90;;;9.77;;
2462;SDS011;1243;54.298;10.172;2023-05-07T03:04:17;11.37;;;10.20;;
2462;SDS011;1243;54.298;10.172;2023-05-07T03:06:43;12.70;;;11.40;;
2462;SDS011;1243;54.298;10.172;2023-05-07T03:09:08;15.73;;;10.27;;
2462;SDS011;1243;54.298;10.172;2023-05-07T03:11:34;11.50;;;10.40;;
2462;SDS011;1243;54.298;10.172;2023-05-07T03:14:00;12.63;;;10.77;;
2462;SDS011;1243;54.298;10.172;2023-05-07T03:16:26;13.70;;;11.50;;
2462;SDS011;1243;54.298;10.172;2023-05-07T03:18:52;11.90;;;10.23;;
2462;SDS011;1243;54.298;10.172;2023-05-07T03:21:18;12.27;;;9.97;;
2462;SDS011;1243;54.298;10.172;2023-05-07T03:23:53;14.23;;;10.57;;
2462;SDS011;1243;54.298;10.172;2023-05-07T03:26:19;10.40;;;9.33;;
2462;SDS011;1243;54.298;10.172;2023-05-07T03:28:45;11.57;;;9.90;;
2462;SDS011;1243;54.298;10.172;2023-05-07T03:31:11;11.73;;;9.90;;
2462;SDS011;1243;54.298;10.172;2023-05-07T03:33:38;13.83;;;10.30;;
2462;SDS011;1243;54.298;10.172;2023-05-07T03:36:15;15.40;;;10.07;;
2462;SDS011;1243;54.298;10.172;2023-05-07T03:38:40;10.07;;;9.00;;
2462;SDS011;1243;54.298;10.172;2023-05-07T03:41:06;15.00;;;11.10;;
2462;SDS011;1243;54.298;10.172;2023-05-07T03:43:32;10.60;;;9.60;;
2462;SDS011;1243;54.298;10.172;2023-05-07T03:45:58;10.17;;;9.10;;
2462;SDS011;1243;54.298;10.172;2023-05-07T03:48:23;12.10;;;10.27;;
2462;SDS011;1243;54.298;10.172;2023-05-07T03:50:49;17.50;;;9.53;;
2462;SDS011;1243;54.298;10.172;2023-05-07T03:53:15;13.17;;;10.67;;
2462;SDS011;1243;54.298;10.172;2023-05-07T03:55:41;11.03;;;9.90;;
2462;SDS011;1243;54.298;10.172;2023-05-07T03:58:07;9.80;;;8.67;;
2462;SDS011;1243;54.298;10.172;2023-05-07T04:00:32;12.10;;;9.43;;
2462;SDS011;1243;54.298;10.172;2023-05-07T04:02:59;12.67;;;10.20;;
2462;SDS011;1243;54.298;10.172;2023-05-07T04:05:25;10.40;;;9.40;;
2462;SDS011;1243;54.298;10.172;2023-05-07T04:07:50;10.20;;;9.20;;
2462;SDS011;1243;54.298;10.172;2023-05-07T04:10:16;10.90;;;9.90;;
2462;SDS011;1243;54.298;10.172;2023-05-07T04:12:42;9.77;;;8.73;;
2462;SDS011;1243;54.298;10.172;2023-05-07T04:15:08;12.87;;;9.90;;
2462;SDS011;1243;54.298;10.172;2023-05-07T04:17:34;14.53;;;9.07;;
2462;SDS011;1243;54.298;10.172;2023-05-07T04:20:00;12.63;;;9.70;;
2462;SDS011;1243;54.298;10.172;2023-05-07T04:22:25;18.03;;;10.30;;
2462;SDS011;1243;54.298;10.172;2023-05-07T04:24:51;10.60;;;8.50;;
2462;SDS011;1243;54.298;10.172;2023-05-07T04:27:17;9.60;;;8.63;;
2462;SDS011;1243;54.298;10.172;2023-05-07T04:29:43;9.83;;;8.87;;
2462;SDS011;1243;54.298;10.172;2023-05-07T04:32:12;10.53;;;9.13;;
2462;SDS011;1243;54.298;10.172;2023-05-07T04:34:38;9.90;;;9.00;;
2462;SDS011;1243;54.298;10.172;2023-05-07T04:37:04;10.60;;;9.20;;
2462;SDS011;1243;54.298;10.172;2023-05-07T04:39:29;10.33;;;8.50;;
2462;SDS011;1243;54.298;10.172;2023-05-07T04:41:55;10.63;;;9.03;;
2462;SDS011;1243;54.298;10.172;2023-05-07T04:44:21;13.50;;;9.10;;
2462;SDS011;1243;54.298;10.172;2023-05-07T04:46:46;10.70;;;9.50;;
2462;SDS011;1243;54.298;10.172;2023-05-07T04:49:12;13.40;;;10.23;;
2462;SDS011;1243;54.298;10.172;2023-05-07T04:51:38;11.47;;;10.13;;
2462;SDS011;1243;54.298;10.172;2023-05-07T04:54:07;11.20;;;9.90;;
2462;SDS011;1243;54.298;10.172;2023-05-07T04:56:33;11.47;;;8.93;;
2462;SDS011;1243;54.298;10.172;2023-05-07T04:58:59;12.80;;;9.93;;
2462;SDS011;1243;54.298;10.172;2023-05-07T05:01:25;10.13;;;9.13;;
2462;SDS011;1243;54.298;10.172;2023-05-07T05:03:50;10.93;;;8.80;;
2462;SDS011;1243;54.298;10.172;2023-05-07T05:06:16;11.77;;;9.70;;
2462;SDS011;1243;54.298;10.172;2023-05-07T05:08:42;12.80;;;9.90;;
2462;SDS011;1243;54.298;10.172;2023-05-07T05:11:08;11.37;;;10.17;;
2462;SDS011;1243;54.298;10.172;2023-05-07T05:13:34;11.10;;;9.57;;
2462;SDS011;1243;54.298;10.172;2023-05-07T05:15:59;11.23;;;9.53;;
2462;SDS011;1243;54.298;10.172;2023-05-07T05:18:25;13.93;;;9.70;;
2462;SDS011;1243;54.298;10.172;2023-05-07T05:20:51;11.47;;;9.90;;
2462;SDS011;1243;54.298;10.172;2023-05-07T05:23:20;10.60;;;9.50;;
2462;SDS011;1243;54.298;10.172;2023-05-07T05:25:46;11.53;;;10.40;;
2462;SDS011;1243;54.298;10.172;2023-05-07T05:28:17;11.67;;;9.30;;
2462;SDS011;1243;54.298;10.172;2023-05-07T05:30:43;12.70;;;9.70;;
2462;SDS011;1243;54.298;10.172;2023-05-07T05:33:09;10.90;;;9.80;;
2462;SDS011;1243;54.298;10.172;2023-05-07T05:35:35;13.40;;;9.17;;
2462;SDS011;1243;54.298;10.172;2023-05-07T05:38:00;11.60;;;9.90;;
2462;SDS011;1243;54.298;10.172;2023-05-07T05:40:26;9.43;;;8.33;;
2462;SDS011;1243;54.298;10.172;2023-05-07T05:42:52;14.90;;;8.67;;
2462;SDS011;1243;54.298;10.172;2023-05-07T05:45:17;12.73;;;9.73;;
2462;SDS011;1243;54.298;10.172;2023-05-07T05:47:43;11.70;;;10.30;;
2462;SDS011;1243;54.298;10.172;2023-05-07T05:50:09;10.90;;;9.80;;
2462;SDS011;1243;54.298;10.172;2023-05-07T05:52:35;10.03;;;9.03;;
2462;SDS011;1243;54.298;10.172;2023-05-07T05:55:01;10.03;;;8.57;;
2462;SDS011;1243;54.298;10.172;2023-05-07T05:57:26;12.80;;;8.07;;
2462;SDS011;1243;54.298;10.172;2023-05-07T05:59:52;11.03;;;8.70;;
2462;SDS011;1243;54.298;10.172;2023-05-07T06:02:18;10.63;;;8.77;;
2462;SDS011;1243;54.298;10.172;2023-05-07T06:04:44;13.80;;;9.60;;
2462;SDS011;1243;54.298;10.172;2023-05-07T06:07:10;10.43;;;8.70;;
2462;SDS011;1243;54.298;10.172;2023-05-07T06:09:36;10.30;;;9.00;;
2462;SDS011;1243;54.298;10.172;2023-05-07T06:12:02;10.97;;;8.87;;
2462;SDS011;1243;54.298;10.172;2023-05-07T06:14:28;10.33;;;8.70;;
2462;SDS011;1243;54.298;10.172;2023-05-07T06:16:53;12.50;;;9.70;;
2462;SDS011;1243;54.298;10.172;2023-05-07T06:19:19;9.87;;;8.70;;
2462;SDS011;1243;54.298;10.172;2023-05-07T06:21:48;9.20;;;8.23;;
2462;SDS011;1243;54.298;10.172;2023-05-07T06:24:14;10.47;;;8.70;;
2462;SDS011;1243;54.298;10.172;2023-05-07T06:26:39;11.93;;;9.10;;
2462;SDS011;1243;54.298;10.172;2023-05-07T06:29:05;10.40;;;8.80;;
2462;SDS011;1243;54.298;10.172;2023-05-07T06:31:31;10.37;;;8.23;;
2462;SDS011;1243;54.298;10.172;2023-05-07T06:33:57;8.53;;;7.77;;
2462;SDS011;1243;54.298;10.172;2023-05-07T06:36:24;10.93;;;8.60;;
2462;SDS011;1243;54.298;10.172;2023-05-07T06:38:50;11.80;;;8.57;;
2462;SDS011;1243;54.298;10.172;2023-05-07T06:41:15;10.63;;;9.53;;
2462;SDS011;1243;54.298;10.172;2023-05-07T06:43:41;12.10;;;8.17;;
2462;SDS011;1243;54.298;10.172;2023-05-07T06:46:07;9.17;;;7.10;;
2462;SDS011;1243;54.298;10.172;2023-05-07T06:48:33;10.53;;;7.97;;
2462;SDS011;1243;54.298;10.172;2023-05-07T06:50:59;9.43;;;7.97;;
2462;SDS011;1243;54.298;10.172;2023-05-07T06:53:24;10.57;;;9.57;;
2462;SDS011;1243;54.298;10.172;2023-05-07T06:55:51;14.23;;;8.30;;
2462;SDS011;1243;54.298;10.172;2023-05-07T06:58:17;9.67;;;8.10;;
2462;SDS011;1243;54.298;10.172;2023-05-07T07:00:42;8.73;;;7.90;;
2462;SDS011;1243;54.298;10.172;2023-05-07T07:03:09;10.37;;;8.07;;
2462;SDS011;1243;54.298;10.172;2023-05-07T07:05:35;9.20;;;7.27;;
2462;SDS011;1243;54.298;10.172;2023-05-07T07:08:00;9.17;;;7.13;;
2462;SDS011;1243;54.298;10.172;2023-05-07T07:10:26;9.60;;;8.57;;
2462;SDS011;1243;54.298;10.172;2023-05-07T07:12:52;7.90;;;7.20;;
2462;SDS011;1243;54.298;10.172;2023-05-07T07:15:19;8.70;;;7.80;;
2462;SDS011;1243;54.298;10.172;2023-05-07T07:17:45;8.90;;;7.53;;
2462;SDS011;1243;54.298;10.172;2023-05-07T07:20:12;7.23;;;6.63;;
2462;SDS011;1243;54.298;10.172;2023-05-07T07:22:39;9.87;;;8.87;;
2462;SDS011;1243;54.298;10.172;2023-05-07T07:25:05;9.43;;;7.47;;
2462;SDS011;1243;54.298;10.172;2023-05-07T07:27:31;8.10;;;6.50;;
2462;SDS011;1243;54.298;10.172;2023-05-07T07:29:59;9.53;;;6.97;;
2462;SDS011;1243;54.298;10.172;2023-05-07T07:32:25;8.77;;;7.43;;
2462;SDS011;1243;54.298;10.172;2023-05-07T07:34:51;7.57;;;6.97;;
2462;SDS011;1243;54.298;10.172;2023-05-07T07:37:17;7.73;;;6.10;;
2462;SDS011;1243;54.298;10.172;2023-05-07T07:39:42;7.40;;;6.70;;
2462;SDS011;1243;54.298;10.172;2023-05-07T07:42:08;7.30;;;6.13;;
2462;SDS011;1243;54.298;10.172;2023-05-07T07:44:34;9.60;;;7.10;;
2462;SDS011;1243;54.298;10.172;2023-05-07T07:47:00;7.17;;;6.47;;
2462;SDS011;1243;54.298;10.172;2023-05-07T07:49:26;5.93;;;5.40;;
2462;SDS011;1243;54.298;10.172;2023-05-07T07:51:52;5.90;;;5.50;;
2462;SDS011;1243;54.298;10.172;2023-05-07T07:54:46;6.70;;;6.00;;
2462;SDS011;1243;54.298;10.172;2023-05-07T07:57:12;7.53;;;5.90;;
2462;SDS011;1243;54.298;10.172;2023-05-07T07:59:38;7.93;;;6.03;;
2462;SDS011;1243;54.298;10.172;2023-05-07T08:02:04;7.67;;;6.97;;
2462;SDS011;1243;54.298;10.172;2023-05-07T08:04:31;8.17;;;7.23;;
2462;SDS011;1243;54.298;10.172;2023-05-07T08:06:58;8.50;;;6.80;;
2462;SDS011;1243;54.298;10.172;2023-05-07T08:09:23;8.30;;;7.33;;
2462;SDS011;1243;54.298;10.172;2023-05-07T08:11:49;8.00;;;7.30;;
2462;SDS011;1243;54.298;10.172;2023-05-07T08:14:15;7.70;;;7.00;;
2462;SDS011;1243;54.298;10.172;2023-05-07T08:16:41;7.60;;;6.93;;
2462;SDS011;1243;54.298;10.172;2023-05-07T08:19:12;9.40;;;8.43;;
2462;SDS011;1243;54.298;10.172;2023-05-07T08:21:38;7.20;;;6.50;;
2462;SDS011;1243;54.298;10.172;2023-05-07T08:24:05;12.10;;;7.47;;
2462;SDS011;1243;54.298;10.172;2023-05-07T08:26:31;9.90;;;6.50;;
2462;SDS011;1243;54.298;10.172;2023-05-07T08:29:01;7.30;;;6.70;;
2462;SDS011;1243;54.298;10.172;2023-05-07T08:31:27;6.67;;;6.07;;
2462;SDS011;1243;54.298;10.172;2023-05-07T08:33:53;6.87;;;6.20;;
2462;SDS011;1243;54.298;10.172;2023-05-07T08:40:15;7.23;;;6.50;;
2462;SDS011;1243;54.298;10.172;2023-05-07T08:42:41;9.27;;;6.80;;
2462;SDS011;1243;54.298;10.172;2023-05-07T08:45:09;8.43;;;5.73;;
2462;SDS011;1243;54.298;10.172;2023-05-07T08:47:47;6.57;;;5.37;;
2462;SDS011;1243;54.298;10.172;2023-05-07T08:50:17;7.87;;;7.10;;
2462;SDS011;1243;54.298;10.172;2023-05-07T08:52:43;6.83;;;6.07;;
2462;SDS011;1243;54.298;10.172;2023-05-07T08:55:10;7.17;;;6.57;;
2462;SDS011;1243;54.298;10.172;2023-05-07T08:57:36;9.07;;;6.27;;
2462;SDS011;1243;54.298;10.172;2023-05-07T09:00:02;6.33;;;5.70;;
2462;SDS011;1243;54.298;10.172;2023-05-07T09:02:34;7.40;;;6.70;;
2462;SDS011;1243;54.298;10.172;2023-05-07T09:05:01;7.70;;;6.20;;
2462;SDS011;1243;54.298;10.172;2023-05-07T09:07:28;6.47;;;5.97;;
2462;SDS011;1243;54.298;10.172;2023-05-07T09:09:54;6.57;;;5.97;;
2462;SDS011;1243;54.298;10.172;2023-05-07T09:12:23;7.80;;;5.93;;
2462;SDS011;1243;54.298;10.172;2023-05-07T09:14:51;6.23;;;5.73;;
2462;SDS011;1243;54.298;10.172;2023-05-07T09:17:17;6.70;;;6.00;;
2462;SDS011;1243;54.298;10.172;2023-05-07T09:19:43;5.67;;;5.27;;
2462;SDS011;1243;54.298;10.172;2023-05-07T09:22:13;5.73;;;5.10;;
2462;SDS011;1243;54.298;10.172;2023-05-07T09:24:47;5.90;;;5.50;;
2462;SDS011;1243;54.298;10.172;2023-05-07T09:27:14;7.07;;;6.37;;
2462;SDS011;1243;54.298;10.172;2023-05-07T09:29:40;6.40;;;5.70;;
2462;SDS011;1243;54.298;10.172;2023-05-07T09:32:07;5.47;;;5.03;;
2462;SDS011;1243;54.298;10.172;2023-05-07T09:34:34;5.87;;;5.37;;
2462;SDS011;1243;54.298;10.172;2023-05-07T09:37:37;6.00;;;5.50;;
2462;SDS011;1243;54.298;10.172;2023-05-07T09:40:06;5.80;;;5.30;;
2462;SDS011;1243;54.298;10.172;2023-05-07T09:42:32;6.80;;;5.23;;
2462;SDS011;1243;54.298;10.172;2023-05-07T09:48:00;6.67;;;5.40;;
2462;SDS011;1243;54.298;10.172;2023-05-07T09:50:30;7.50;;;6.50;;
2462;SDS011;1243;54.298;10.172;2023-05-07T09:53:13;7.40;;;5.90;;
2462;SDS011;1243;54.298;10.172;2023-05-07T09:55:41;5.30;;;4.77;;
2462;SDS011;1243;54.298;10.172;2023-05-07T09:58:08;10.63;;;8.33;;
2462;SDS011;1243;54.298;10.172;2023-05-07T10:00:37;7.13;;;6.43;;
2462;SDS011;1243;54.298;10.172;2023-05-07T10:03:04;6.73;;;6.00;;
2462;SDS011;1243;54.298;10.172;2023-05-07T10:05:31;8.80;;;7.93;;
2462;SDS011;1243;54.298;10.172;2023-05-07T10:08:00;6.23;;;5.80;;
2462;SDS011;1243;54.298;10.172;2023-05-07T10:10:27;5.70;;;5.20;;
2462;SDS011;1243;54.298;10.172;2023-05-07T10:12:54;7.93;;;5.97;;
2462;SDS011;1243;54.298;10.172;2023-05-07T10:15:20;6.27;;;5.67;;
2462;SDS011;1243;54.298;10.172;2023-05-07T10:17:49;5.97;;;5.47;;
2462;SDS011;1243;54.298;10.172;2023-05-07T10:20:18;6.57;;;5.87;;
2462;SDS011;1243;54.298;10.172;2023-05-07T10:22:49;5.20;;;4.90;;
2462;SDS011;1243;54.298;10.172;2023-05-07T10:25:28;6.60;;;6.00;;
2462;SDS011;1243;54.298;10.172;2023-05-07T10:28:04;6.30;;;5.80;;
2462;SDS011;1243;54.298;10.172;2023-05-07T10:31:11;6.03;;;5.30;;
2462;SDS011;1243;54.298;10.172;2023-05-07T10:34:10;5.77;;;5.17;;
2462;SDS011;1243;54.298;10.172;2023-05-07T10:36:41;5.10;;;4.60;;
2462;SDS011;1243;54.298;10.172;2023-05-07T10:39:08;5.53;;;5.13;;
2462;SDS011;1243;54.298;10.172;2023-05-07T10:41:34;5.23;;;4.83;;
2462;SDS011;1243;54.298;10.172;2023-05-07T10:44:01;7.17;;;4.10;;
2462;SDS011;1243;54.298;10.172;2023-05-07T10:46:28;5.57;;;5.07;;
2462;SDS011;1243;54.298;10.172;2023-05-07T10:51:31;4.93;;;4.07;;
2462;SDS011;1243;54.298;10.172;2023-05-07T10:56:53;39.53;;;32.87;;
2462;SDS011;1243;54.298;10.172;2023-05-07T11:05:26;41.77;;;33.70;;
2462;SDS011;1243;54.298;10.172;2023-05-07T11:07:57;22.70;;;17.33;;
2462;SDS011;1243;54.298;10.172;2023-05-07T11:13:13;13.57;;;12.60;;
2462;SDS011;1243;54.298;10.172;2023-05-07T11:15:40;4.70;;;4.40;;
2462;SDS011;1243;54.298;10.172;2023-05-07T11:18:14;3.80;;;3.50;;
2462;SDS011;1243;54.298;10.172;2023-05-07T11:28:44;5.60;;;5.10;;
2462;SDS011;1243;54.298;10.172;2023-05-07T11:31:10;4.43;;;4.13;;
2462;SDS011;1243;54.298;10.172;2023-05-07T11:33:36;2.80;;;2.60;;
2462;SDS011;1243;54.298;10.172;2023-05-07T11:36:12;3.67;;;3.23;;
2462;SDS011;1243;54.298;10.172;2023-05-07T11:45:22;2.50;;;2.30;;
2462;SDS011;1243;54.298;10.172;2023-05-07T11:47:52;2.70;;;2.50;;
2462;SDS011;1243;54.298;10.172;2023-05-07T11:50:18;3.30;;;2.77;;
2462;SDS011;1243;54.298;10.172;2023-05-07T11:53:11;3.00;;;2.80;;
2462;SDS011;1243;54.298;10.172;2023-05-07T11:55:39;2.60;;;2.40;;
2462;SDS011;1243;54.298;10.172;2023-05-07T11:58:05;3.27;;;2.97;;
2462;SDS011;1243;54.298;10.172;2023-05-07T12:00:32;2.70;;;2.50;;
2462;SDS011;1243;54.298;10.172;2023-05-07T12:03:18;2.73;;;2.53;;
2462;SDS011;1243;54.298;10.172;2023-05-07T12:05:47;2.60;;;2.40;;
2462;SDS011;1243;54.298;10.172;2023-05-07T12:11:18;6.03;;;2.40;;
2462;SDS011;1243;54.298;10.172;2023-05-07T12:13:48;2.83;;;2.37;;
2462;SDS011;1243;54.298;10.172;2023-05-07T12:16:14;3.30;;;2.00;;
2462;SDS011;1243;54.298;10.172;2023-05-07T12:18:40;5.93;;;2.67;;
2462;SDS011;1243;54.298;10.172;2023-05-07T12:21:06;2.17;;;1.97;;
2462;SDS011;1243;54.298;10.172;2023-05-07T12:23:33;3.17;;;2.57;;
2462;SDS011;1243;54.298;10.172;2023-05-07T12:26:00;2.00;;;1.90;;
2462;SDS011;1243;54.298;10.172;2023-05-07T12:28:36;6.63;;;2.00;;
2462;SDS011;1243;54.298;10.172;2023-05-07T12:31:03;2.60;;;2.40;;
2462;SDS011;1243;54.298;10.172;2023-05-07T12:33:30;2.10;;;2.00;;
2462;SDS011;1243;54.298;10.172;2023-05-07T12:35:57;4.10;;;2.43;;
2462;SDS011;1243;54.298;10.172;2023-05-07T12:38:37;2.50;;;2.30;;
2462;SDS011;1243;54.298;10.172;2023-05-07T12:41:04;5.20;;;2.80;;
2462;SDS011;1243;54.298;10.172;2023-05-07T12:43:32;2.83;;;2.63;;
2462;SDS011;1243;54.298;10.172;2023-05-07T12:45:59;3.10;;;2.80;;
2462;SDS011;1243;54.298;10.172;2023-05-07T12:48:29;2.53;;;2.33;;
2462;SDS011;1243;54.298;10.172;2023-05-07T12:51:14;3.03;;;2.50;;
2462;SDS011;1243;54.298;10.172;2023-05-07T12:53:41;2.50;;;2.30;;
2462;SDS011;1243;54.298;10.172;2023-05-07T12:56:12;3.33;;;2.77;;
2462;SDS011;1243;54.298;10.172;2023-05-07T12:59:01;2.27;;;2.13;;
2462;SDS011;1243;54.298;10.172;2023-05-07T13:01:30;3.43;;;2.40;;
2462;SDS011;1243;54.298;10.172;2023-05-07T13:04:02;2.70;;;2.50;;
2462;SDS011;1243;54.298;10.172;2023-05-07T13:06:29;2.80;;;2.33;;
2462;SDS011;1243;54.298;10.172;2023-05-07T13:08:56;3.83;;;2.47;;
2462;SDS011;1243;54.298;10.172;2023-05-07T13:11:22;2.50;;;2.30;;
2462;SDS011;1243;54.298;10.172;2023-05-07T13:13:48;2.33;;;2.10;;
2462;SDS011;1243;54.298;10.172;2023-05-07T13:16:14;2.80;;;2.60;;
2462;SDS011;1243;54.298;10.172;2023-05-07T13:18:46;2.20;;;2.10;;
2462;SDS011;1243;54.298;10.172;2023-05-07T13:21:30;4.83;;;2.90;;
2462;SDS011;1243;54.298;10.172;2023-05-07T13:23:57;8.53;;;3.50;;
2462;SDS011;1243;54.298;10.172;2023-05-07T13:26:24;3.47;;;2.33;;
2462;SDS011;1243;54.298;10.172;2023-05-07T13:29:10;2.57;;;2.37;;
2462;SDS011;1243;54.298;10.172;2023-05-07T13:31:36;2.43;;;2.10;;
2462;SDS011;1243;54.298;10.172;2023-05-07T13:34:15;2.53;;;2.23;;
2462;SDS011;1243;54.298;10.172;2023-05-07T13:36:45;3.73;;;3.43;;
2462;SDS011;1243;54.298;10.172;2023-05-07T13:39:13;2.60;;;2.40;;
2462;SDS011;1243;54.298;10.172;2023-05-07T13:41:39;2.50;;;2.40;;
2462;SDS011;1243;54.298;10.172;2023-05-07T13:44:05;2.47;;;2.30;;
2462;SDS011;1243;54.298;10.172;2023-05-07T13:47:10;3.07;;;2.77;;
2462;SDS011;1243;54.298;10.172;2023-05-07T13:50:13;2.60;;;2.40;;
2462;SDS011;1243;54.298;10.172;2023-05-07T13:52:42;2.97;;;2.67;;
2462;SDS011;1243;54.298;10.172;2023-05-07T13:55:11;2.90;;;2.70;;
2462;SDS011;1243;54.298;10.172;2023-05-07T13:57:37;2.57;;;2.33;;
2462;SDS011;1243;54.298;10.172;2023-05-07T14:00:04;2.47;;;2.37;;
2462;SDS011;1243;54.298;10.172;2023-05-07T14:05:56;5.00;;;2.50;;
2462;SDS011;1243;54.298;10.172;2023-05-07T14:08:25;2.40;;;2.03;;
2462;SDS011;1243;54.298;10.172;2023-05-07T14:11:10;3.07;;;2.60;;
2462;SDS011;1243;54.298;10.172;2023-05-07T14:13:48;1.90;;;1.70;;
2462;SDS011;1243;54.298;10.172;2023-05-07T14:16:14;5.70;;;2.37;;
2462;SDS011;1243;54.298;10.172;2023-05-07T14:18:40;2.70;;;2.50;;
2462;SDS011;1243;54.298;10.172;2023-05-07T14:21:09;2.90;;;2.60;;
2462;SDS011;1243;54.298;10.172;2023-05-07T14:30:07;2.40;;;2.30;;
2462;SDS011;1243;54.298;10.172;2023-05-07T14:32:45;2.27;;;2.07;;
2462;SDS011;1243;54.298;10.172;2023-05-07T14:35:11;2.03;;;1.93;;
2462;SDS011;1243;54.298;10.172;2023-05-07T14:37:36;2.63;;;2.30;;
2462;SDS011;1243;54.298;10.172;2023-05-07T14:40:02;2.50;;;2.30;;
2462;SDS011;1243;54.298;10.172;2023-05-07T14:42:39;2.70;;;2.50;;
2462;SDS011;1243;54.298;10.172;2023-05-07T14:45:06;2.90;;;2.60;;
2462;SDS011;1243;54.298;10.172;2023-05-07T14:50:55;2.97;;;2.77;;
2462;SDS011;1243;54.298;10.172;2023-05-07T14:53:21;4.30;;;2.40;;
2462;SDS011;1243;54.298;10.172;2023-05-07T14:55:48;5.80;;;2.47;;
2462;SDS011;1243;54.298;10.172;2023-05-07T14:58:14;2.47;;;2.37;;
2462;SDS011;1243;54.298;10.172;2023-05-07T15:00:43;2.30;;;2.20;;
2462;SDS011;1243;54.298;10.172;2023-05-07T15:06:59;6.40;;;2.50;;
2462;SDS011;1243;54.298;10.172;2023-05-07T15:12:47;5.37;;;3.67;;
2462;SDS011;1243;54.298;10.172;2023-05-07T15:15:13;4.90;;;4.00;;
2462;SDS011;1243;54.298;10.172;2023-05-07T15:17:40;5.70;;;3.83;;
2462;SDS011;1243;54.298;10.172;2023-05-07T15:20:06;4.10;;;3.67;;
2462;SDS011;1243;54.298;10.172;2023-05-07T15:22:40;4.07;;;3.60;;
2462;SDS011;1243;54.298;10.172;2023-05-07T15:27:59;5.23;;;4.00;;
2462;SDS011;1243;54.298;10.172;2023-05-07T15:30:25;3.30;;;2.70;;
2462;SDS011;1243;54.298;10.172;2023-05-07T15:32:51;2.90;;;1.83;;
2462;SDS011;1243;54.298;10.172;2023-05-07T15:35:29;3.47;;;2.50;;
2462;SDS011;1243;54.298;10.172;2023-05-07T15:37:55;5.17;;;2.33;;
2462;SDS011;1243;54.298;10.172;2023-05-07T15:40:21;2.17;;;1.97;;
2462;SDS011;1243;54.298;10.172;2023-05-07T15:43:12;3.30;;;2.37;;
2462;SDS011;1243;54.298;10.172;2023-05-07T15:46:01;3.87;;;2.40;;
2462;SDS011;1243;54.298;10.172;2023-05-07T15:48:26;8.27;;;2.30;;
2462;SDS011;1243;54.298;10.172;2023-05-07T15:50:53;2.53;;;2.20;;
2462;SDS011;1243;54.298;10.172;2023-05-07T15:53:50;4.50;;;2.67;;
2462;SDS011;1243;54.298;10.172;2023-05-07T15:56:54;3.03;;;2.70;;
2462;SDS011;1243;54.298;10.172;2023-05-07T15:59:23;3.13;;;2.60;;